sensor_id;sensor_type;location;lat;lon;timestamp;pressure;altitude;pressure_sealevel;temperature;humidity
71004;BME280;59025;42.050;-8.660;2022-08-19T00:00:39;101007.66;;;19.05;100.00
71004;BME280;59025;42.050;-8.660;2022-08-19T00:03:06;101011.06;;;19.06;100.00
71004;BME280;59025;42.050;-8.660;2022-08-19T00:05:34;101011.31;;;19.04;100.00
71004;BME280;59025;42.050;-8.660;2022-08-19T00:08:03;101015.44;;;19.00;100.00
71004;BME280;59025;42.050;-8.660;2022-08-19T00:10:31;100999.47;;;18.97;100.00
71004;BME280;59025;42.050;-8.660;2022-08-19T00:12:59;101002.66;;;18.99;100.00
71004;BME280;59025;42.050;-8.660;2022-08-19T00:15:27;101005.06;;;19.05;100.00
71004;BME280;59025;42.050;-8.660;2022-08-19T00:17:54;101005.56;;;19.02;100.00
71004;BME280;59025;42.050;-8.660;2022-08-19T00:20:22;101000.88;;;19.04;100.00
71004;BME280;59025;42.050;-8.660;2022-08-19T00:22:49;100997.28;;;19.10;100.00
71004;BME280;59025;42.050;-8.660;2022-08-19T00:25:19;101002.50;;;19.10;100.00
71004;BME280;59025;42.050;-8.660;2022-08-19T00:27:46;101001.00;;;19.14;100.00
71004;BME280;59025;42.050;-8.660;2022-08-19T00:30:14;101000.19;;;19.14;100.00
71004;BME280;59025;42.050;-8.660;2022-08-19T00:32:42;100999.44;;;19.13;100.00
71004;BME280;59025;42.050;-8.660;2022-08-19T00:35:10;100998.88;;;19.11;100.00
71004;BME280;59025;42.050;-8.660;2022-08-19T00:37:38;100993.59;;;19.06;100.00
71004;BME280;59025;42.050;-8.660;2022-08-19T00:40:11;100994.63;;;19.05;100.00
71004;BME280;59025;42.050;-8.660;2022-08-19T00:42:41;100988.34;;;19.01;100.00
71004;BME280;59025;42.050;-8.660;2022-08-19T00:45:11;100983.31;;;18.95;100.00
71004;BME280;59025;42.050;-8.660;2022-08-19T00:47:39;100984.06;;;18.95;100.00
71004;BME280;59025;42.050;-8.660;2022-08-19T00:50:09;100979.13;;;18.94;100.00
71004;BME280;59025;42.050;-8.660;2022-08-19T00:52:40;100991.88;;;18.95;100.00
71004;BME280;59025;42.050;-8.660;2022-08-19T00:55:13;100988.75;;;18.93;100.00
71004;BME280;59025;42.050;-8.660;2022-08-19T00:57:50;100987.72;;;18.94;100.00
71004;BME280;59025;42.050;-8.660;2022-08-19T01:00:21;100980.94;;;18.93;100.00
71004;BME280;59025;42.050;-8.660;2022-08-19T01:02:49;100980.16;;;18.93;100.00
71004;BME280;59025;42.050;-8.660;2022-08-19T01:05:19;100982.44;;;18.89;100.00
71004;BME280;59025;42.050;-8.660;2022-08-19T01:07:49;100977.72;;;18.86;100.00
71004;BME280;59025;42.050;-8.660;2022-08-19T01:10:19;100980.56;;;18.85;100.00
71004;BME280;59025;42.050;-8.660;2022-08-19T01:12:49;100972.81;;;18.90;100.00
71004;BME280;59025;42.050;-8.660;2022-08-19T01:15:21;100979.06;;;18.89;100.00
71004;BME280;59025;42.050;-8.660;2022-08-19T01:17:50;100973.03;;;18.88;100.00
71004;BME280;59025;42.050;-8.660;2022-08-19T01:20:21;100982.13;;;18.86;100.00
71004;BME280;59025;42.050;-8.660;2022-08-19T01:22:53;100978.75;;;18.85;100.00
71004;BME280;59025;42.050;-8.660;2022-08-19T01:25:23;100978.47;;;18.82;100.00
71004;BME280;59025;42.050;-8.660;2022-08-19T01:27:52;100980.19;;;18.76;100.00
71004;BME280;59025;42.050;-8.660;2022-08-19T01:30:21;100975.47;;;18.73;100.00
71004;BME280;59025;42.050;-8.660;2022-08-19T01:32:49;100979.09;;;18.72;100.00
71004;BME280;59025;42.050;-8.660;2022-08-19T01:35:17;100981.16;;;18.70;100.00
71004;BME280;59025;42.050;-8.660;2022-08-19T01:37:47;100989.00;;;18.70;100.00
71004;BME280;59025;42.050;-8.660;2022-08-19T01:40:17;100982.66;;;18.66;100.00
71004;BME280;59025;42.050;-8.660;2022-08-19T01:42:45;100986.00;;;18.62;100.00
71004;BME280;59025;42.050;-8.660;2022-08-19T01:45:13;100980.72;;;18.57;100.00
71004;BME280;59025;42.050;-8.660;2022-08-19T01:47:41;100980.25;;;18.60;100.00
71004;BME280;59025;42.050;-8.660;2022-08-19T01:50:10;100979.47;;;18.59;100.00
71004;BME280;59025;42.050;-8.660;2022-08-19T01:52:39;100978.44;;;18.60;100.00
71004;BME280;59025;42.050;-8.660;2022-08-19T01:55:09;100978.13;;;18.57;100.00
71004;BME280;59025;42.050;-8.660;2022-08-19T01:57:40;100977.00;;;18.53;100.00
71004;BME280;59025;42.050;-8.660;2022-08-19T02:00:11;100967.09;;;18.50;100.00
71004;BME280;59025;42.050;-8.660;2022-08-19T02:02:39;100974.38;;;18.48;100.00
71004;BME280;59025;42.050;-8.660;2022-08-19T02:05:08;100974.59;;;18.46;100.00
71004;BME280;59025;42.050;-8.660;2022-08-19T02:07:35;100981.06;;;18.44;100.00
71004;BME280;59025;42.050;-8.660;2022-08-19T02:10:04;100964.34;;;18.40;100.00
71004;BME280;59025;42.050;-8.660;2022-08-19T02:12:32;100972.09;;;18.35;100.00
71004;BME280;59025;42.050;-8.660;2022-08-19T02:15:00;100964.97;;;18.30;100.00
71004;BME280;59025;42.050;-8.660;2022-08-19T02:17:28;100963.97;;;18.31;100.00
71004;BME280;59025;42.050;-8.660;2022-08-19T02:19:56;100951.94;;;18.30;100.00
71004;BME280;59025;42.050;-8.660;2022-08-19T02:22:25;100959.22;;;18.28;100.00
71004;BME280;59025;42.050;-8.660;2022-08-19T02:24:52;100968.84;;;18.28;100.00
71004;BME280;59025;42.050;-8.660;2022-08-19T02:27:20;100964.16;;;18.30;100.00
71004;BME280;59025;42.050;-8.660;2022-08-19T02:29:48;100968.59;;;18.29;100.00
71004;BME280;59025;42.050;-8.660;2022-08-19T02:32:17;100970.63;;;18.27;100.00
71004;BME280;59025;42.050;-8.660;2022-08-19T02:34:45;100968.53;;;18.24;100.00
71004;BME280;59025;42.050;-8.660;2022-08-19T02:37:13;100967.41;;;18.20;100.00
71004;BME280;59025;42.050;-8.660;2022-08-19T02:39:54;100968.22;;;18.21;100.00
71004;BME280;59025;42.050;-8.660;2022-08-19T02:42:21;100977.84;;;18.20;100.00
71004;BME280;59025;42.050;-8.660;2022-08-19T02:44:49;100977.84;;;18.20;100.00
71004;BME280;59025;42.050;-8.660;2022-08-19T02:47:19;100965.84;;;18.19;100.00
71004;BME280;59025;42.050;-8.660;2022-08-19T02:49:46;100972.78;;;18.14;100.00
71004;BME280;59025;42.050;-8.660;2022-08-19T02:52:15;100973.50;;;18.09;100.00
71004;BME280;59025;42.050;-8.660;2022-08-19T02:54:43;100971.47;;;18.11;100.00
71004;BME280;59025;42.050;-8.660;2022-08-19T02:57:10;100974.63;;;18.13;100.00
71004;BME280;59025;42.050;-8.660;2022-08-19T02:59:38;100974.06;;;18.11;100.00
71004;BME280;59025;42.050;-8.660;2022-08-19T03:02:05;100977.69;;;18.10;100.00
71004;BME280;59025;42.050;-8.660;2022-08-19T03:04:34;100975.88;;;18.11;100.00
71004;BME280;59025;42.050;-8.660;2022-08-19T03:07:02;100975.34;;;18.09;100.00
71004;BME280;59025;42.050;-8.660;2022-08-19T03:09:29;100972.16;;;18.07;100.00
71004;BME280;59025;42.050;-8.660;2022-08-19T03:11:57;100973.41;;;18.04;100.00
71004;BME280;59025;42.050;-8.660;2022-08-19T03:14:24;100978.09;;;18.02;100.00
71004;BME280;59025;42.050;-8.660;2022-08-19T03:16:52;100976.19;;;17.98;100.00
71004;BME280;59025;42.050;-8.660;2022-08-19T03:19:19;100985.59;;;17.99;100.00
71004;BME280;59025;42.050;-8.660;2022-08-19T03:21:50;100982.19;;;17.98;100.00
71004;BME280;59025;42.050;-8.660;2022-08-19T03:24:18;100982.41;;;17.97;100.00
71004;BME280;59025;42.050;-8.660;2022-08-19T03:26:50;100988.56;;;17.91;100.00
71004;BME280;59025;42.050;-8.660;2022-08-19T03:29:18;100987.72;;;17.85;100.00
71004;BME280;59025;42.050;-8.660;2022-08-19T03:31:46;100980.94;;;17.84;100.00
71004;BME280;59025;42.050;-8.660;2022-08-19T03:34:16;100976.19;;;17.81;100.00
71004;BME280;59025;42.050;-8.660;2022-08-19T03:36:46;100977.69;;;17.77;100.00
71004;BME280;59025;42.050;-8.660;2022-08-19T03:39:15;100979.81;;;17.80;100.00
71004;BME280;59025;42.050;-8.660;2022-08-19T03:41:44;100983.75;;;17.83;100.00
71004;BME280;59025;42.050;-8.660;2022-08-19T03:44:13;100983.69;;;17.78;100.00
71004;BME280;59025;42.050;-8.660;2022-08-19T03:46:40;100980.75;;;17.74;100.00
71004;BME280;59025;42.050;-8.660;2022-08-19T03:49:08;100982.56;;;17.74;100.00
71004;BME280;59025;42.050;-8.660;2022-08-19T03:51:38;100989.38;;;17.75;100.00
71004;BME280;59025;42.050;-8.660;2022-08-19T03:54:07;100984.72;;;17.77;100.00
71004;BME280;59025;42.050;-8.660;2022-08-19T03:56:39;100979.97;;;17.74;100.00
71004;BME280;59025;42.050;-8.660;2022-08-19T03:59:08;100988.03;;;17.72;100.00
71004;BME280;59025;42.050;-8.660;2022-08-19T04:01:35;100979.66;;;17.70;100.00
71004;BME280;59025;42.050;-8.660;2022-08-19T04:04:03;100988.97;;;17.66;100.00
71004;BME280;59025;42.050;-8.660;2022-08-19T04:06:33;100988.38;;;17.64;100.00
71004;BME280;59025;42.050;-8.660;2022-08-19T04:09:02;100986.28;;;17.61;100.00
71004;BME280;59025;42.050;-8.660;2022-08-19T04:11:33;100990.44;;;17.62;100.00
71004;BME280;59025;42.050;-8.660;2022-08-19T04:14:03;100991.16;;;17.58;100.00
71004;BME280;59025;42.050;-8.660;2022-08-19T04:16:30;100989.00;;;17.55;100.00
71004;BME280;59025;42.050;-8.660;2022-08-19T04:19:00;100995.16;;;17.49;100.00
71004;BME280;59025;42.050;-8.660;2022-08-19T04:21:28;100994.03;;;17.45;100.00
71004;BME280;59025;42.050;-8.660;2022-08-19T04:23:57;100993.47;;;17.43;100.00
71004;BME280;59025;42.050;-8.660;2022-08-19T04:26:26;100997.34;;;17.40;100.00
71004;BME280;59025;42.050;-8.660;2022-08-19T04:28:54;100996.53;;;17.40;100.00
71004;BME280;59025;42.050;-8.660;2022-08-19T04:31:25;100996.53;;;17.40;100.00
71004;BME280;59025;42.050;-8.660;2022-08-19T04:33:54;100998.38;;;17.39;100.00
71004;BME280;59025;42.050;-8.660;2022-08-19T04:36:25;100991.78;;;17.37;100.00
71004;BME280;59025;42.050;-8.660;2022-08-19T04:38:55;100990.44;;;17.34;100.00
71004;BME280;59025;42.050;-8.660;2022-08-19T04:41:23;101007.28;;;17.32;100.00
71004;BME280;59025;42.050;-8.660;2022-08-19T04:44:08;101009.56;;;17.28;100.00
71004;BME280;59025;42.050;-8.660;2022-08-19T04:46:37;101004.81;;;17.25;100.00
71004;BME280;59025;42.050;-8.660;2022-08-19T04:49:05;101012.50;;;17.20;100.00
71004;BME280;59025;42.050;-8.660;2022-08-19T04:51:33;101010.63;;;17.16;100.00
71004;BME280;59025;42.050;-8.660;2022-08-19T04:54:02;101021.03;;;17.16;100.00
71004;BME280;59025;42.050;-8.660;2022-08-19T04:56:30;101012.41;;;17.15;100.00
71004;BME280;59025;42.050;-8.660;2022-08-19T04:58:57;101007.00;;;17.17;100.00
71004;BME280;59025;42.050;-8.660;2022-08-19T05:01:29;101003.84;;;17.15;100.00
71004;BME280;59025;42.050;-8.660;2022-08-19T05:03:59;101007.69;;;17.12;100.00
71004;BME280;59025;42.050;-8.660;2022-08-19T05:06:27;101008.50;;;17.13;100.00
71004;BME280;59025;42.050;-8.660;2022-08-19T05:08:59;101014.13;;;17.10;100.00
71004;BME280;59025;42.050;-8.660;2022-08-19T05:11:27;101004.28;;;17.12;100.00
71004;BME280;59025;42.050;-8.660;2022-08-19T05:13:55;101010.16;;;17.19;100.00
71004;BME280;59025;42.050;-8.660;2022-08-19T05:16:24;101013.22;;;17.16;100.00
71004;BME280;59025;42.050;-8.660;2022-08-19T05:18:52;101016.63;;;17.16;100.00
71004;BME280;59025;42.050;-8.660;2022-08-19T05:21:39;101021.81;;;17.16;100.00
71004;BME280;59025;42.050;-8.660;2022-08-19T05:24:24;101024.97;;;17.18;100.00
71004;BME280;59025;42.050;-8.660;2022-08-19T05:26:53;101016.63;;;17.16;100.00
71004;BME280;59025;42.050;-8.660;2022-08-19T05:29:26;101013.22;;;17.16;100.00
71004;BME280;59025;42.050;-8.660;2022-08-19T05:31:54;101028.59;;;17.17;100.00
71004;BME280;59025;42.050;-8.660;2022-08-19T05:34:23;101024.31;;;17.11;100.00
71004;BME280;59025;42.050;-8.660;2022-08-19T05:36:55;101019.56;;;17.08;100.00
71004;BME280;59025;42.050;-8.660;2022-08-19T05:39:24;101032.25;;;17.05;100.00
71004;BME280;59025;42.050;-8.660;2022-08-19T05:41:54;101036.88;;;17.03;100.00
71004;BME280;59025;42.050;-8.660;2022-08-19T05:44:24;101033.25;;;17.04;100.00
71004;BME280;59025;42.050;-8.660;2022-08-19T05:46:52;101034.38;;;17.08;100.00
71004;BME280;59025;42.050;-8.660;2022-08-19T05:49:22;101035.38;;;17.07;100.00
71004;BME280;59025;42.050;-8.660;2022-08-19T05:51:50;101027.84;;;17.05;100.00
71004;BME280;59025;42.050;-8.660;2022-08-19T05:54:19;101038.69;;;17.02;100.00
71004;BME280;59025;42.050;-8.660;2022-08-19T05:56:48;101040.72;;;17.00;100.00
71004;BME280;59025;42.050;-8.660;2022-08-19T05:59:17;101038.91;;;17.01;100.00
71004;BME280;59025;42.050;-8.660;2022-08-19T06:01:45;101033.97;;;16.99;100.00
71004;BME280;59025;42.050;-8.660;2022-08-19T06:04:16;101041.97;;;16.98;100.00
71004;BME280;59025;42.050;-8.660;2022-08-19T06:06:44;101051.34;;;16.99;100.00
71004;BME280;59025;42.050;-8.660;2022-08-19T06:09:12;101048.41;;;16.95;100.00
71004;BME280;59025;42.050;-8.660;2022-08-19T06:11:43;101053.72;;;17.00;100.00
71004;BME280;59025;42.050;-8.660;2022-08-19T06:14:13;101051.91;;;17.01;100.00
71004;BME280;59025;42.050;-8.660;2022-08-19T06:16:42;101062.28;;;17.12;100.00
71004;BME280;59025;42.050;-8.660;2022-08-19T06:19:14;101064.53;;;17.20;100.00
71004;BME280;59025;42.050;-8.660;2022-08-19T06:21:44;101057.97;;;17.29;100.00
71004;BME280;59025;42.050;-8.660;2022-08-19T06:24:15;101068.25;;;17.36;100.00
71004;BME280;59025;42.050;-8.660;2022-08-19T06:26:47;101069.38;;;17.40;100.00
71004;BME280;59025;42.050;-8.660;2022-08-19T06:29:16;101069.78;;;17.48;100.00
71004;BME280;59025;42.050;-8.660;2022-08-19T06:31:46;101073.19;;;17.49;100.00
71004;BME280;59025;42.050;-8.660;2022-08-19T06:34:15;101071.41;;;17.49;100.00
71004;BME280;59025;42.050;-8.660;2022-08-19T06:36:45;101075.56;;;17.50;100.00
71004;BME280;59025;42.050;-8.660;2022-08-19T06:39:15;101078.91;;;17.62;100.00
71004;BME280;59025;42.050;-8.660;2022-08-19T06:41:47;101081.81;;;17.77;100.00
71004;BME280;59025;42.050;-8.660;2022-08-19T06:44:15;101070.81;;;18.03;100.00
71004;BME280;59025;42.050;-8.660;2022-08-19T06:46:43;101067.25;;;18.75;100.00
71004;BME280;59025;42.050;-8.660;2022-08-19T06:49:10;101056.75;;;20.04;100.00
71004;BME280;59025;42.050;-8.660;2022-08-19T06:51:40;101034.81;;;20.83;100.00
71004;BME280;59025;42.050;-8.660;2022-08-19T06:54:09;101034.00;;;21.39;100.00
71004;BME280;59025;42.050;-8.660;2022-08-19T06:56:37;101039.59;;;21.78;100.00
71004;BME280;59025;42.050;-8.660;2022-08-19T06:59:08;101037.25;;;21.96;100.00
71004;BME280;59025;42.050;-8.660;2022-08-19T07:01:37;101035.16;;;22.28;100.00
71004;BME280;59025;42.050;-8.660;2022-08-19T07:04:06;101036.88;;;22.83;100.00
71004;BME280;59025;42.050;-8.660;2022-08-19T07:06:35;101040.69;;;23.15;100.00
71004;BME280;59025;42.050;-8.660;2022-08-19T07:09:03;101035.09;;;23.37;100.00
71004;BME280;59025;42.050;-8.660;2022-08-19T07:11:31;101036.44;;;23.73;100.00
71004;BME280;59025;42.050;-8.660;2022-08-19T07:13:59;101037.44;;;24.15;100.00
71004;BME280;59025;42.050;-8.660;2022-08-19T07:16:29;101034.81;;;24.15;100.00
71004;BME280;59025;42.050;-8.660;2022-08-19T07:18:57;101032.03;;;24.02;100.00
71004;BME280;59025;42.050;-8.660;2022-08-19T07:21:28;101038.78;;;24.41;100.00
71004;BME280;59025;42.050;-8.660;2022-08-19T07:23:58;101034.94;;;24.57;100.00
71004;BME280;59025;42.050;-8.660;2022-08-19T07:26:28;101033.75;;;24.68;100.00
71004;BME280;59025;42.050;-8.660;2022-08-19T07:28:57;101034.03;;;24.90;100.00
71004;BME280;59025;42.050;-8.660;2022-08-19T07:31:28;101033.63;;;25.44;100.00
71004;BME280;59025;42.050;-8.660;2022-08-19T07:33:56;101037.81;;;25.63;100.00
71004;BME280;59025;42.050;-8.660;2022-08-19T07:36:25;101032.06;;;25.61;100.00
71004;BME280;59025;42.050;-8.660;2022-08-19T07:38:56;101039.69;;;25.63;100.00
71004;BME280;59025;42.050;-8.660;2022-08-19T07:41:25;101035.09;;;25.68;100.00
71004;BME280;59025;42.050;-8.660;2022-08-19T07:43:57;101031.38;;;25.88;100.00
71004;BME280;59025;42.050;-8.660;2022-08-19T07:46:31;101032.47;;;26.32;100.00
71004;BME280;59025;42.050;-8.660;2022-08-19T07:48:59;101028.38;;;26.40;100.00
71004;BME280;59025;42.050;-8.660;2022-08-19T07:51:28;101032.88;;;26.39;100.00
71004;BME280;59025;42.050;-8.660;2022-08-19T07:53:55;101027.00;;;26.42;100.00
71004;BME280;59025;42.050;-8.660;2022-08-19T07:56:23;101026.66;;;26.62;100.00
71004;BME280;59025;42.050;-8.660;2022-08-19T07:58:51;101031.84;;;26.81;100.00
71004;BME280;59025;42.050;-8.660;2022-08-19T08:01:22;101038.78;;;26.90;100.00
71004;BME280;59025;42.050;-8.660;2022-08-19T08:03:52;101035.25;;;26.95;100.00
71004;BME280;59025;42.050;-8.660;2022-08-19T08:06:38;101031.66;;;27.40;100.00
71004;BME280;59025;42.050;-8.660;2022-08-19T08:09:25;101040.66;;;27.39;100.00
71004;BME280;59025;42.050;-8.660;2022-08-19T08:11:55;101030.31;;;27.29;100.00
71004;BME280;59025;42.050;-8.660;2022-08-19T08:14:25;101032.66;;;27.30;100.00
71004;BME280;59025;42.050;-8.660;2022-08-19T08:16:54;101041.59;;;27.56;100.00
71004;BME280;59025;42.050;-8.660;2022-08-19T08:19:24;101037.81;;;27.49;100.00
71004;BME280;59025;42.050;-8.660;2022-08-19T08:21:53;101044.34;;;27.51;100.00
71004;BME280;59025;42.050;-8.660;2022-08-19T08:24:20;101051.16;;;27.66;100.00
71004;BME280;59025;42.050;-8.660;2022-08-19T08:26:48;101045.84;;;27.79;100.00
71004;BME280;59025;42.050;-8.660;2022-08-19T08:29:15;101043.31;;;28.27;100.00
71004;BME280;59025;42.050;-8.660;2022-08-19T08:31:45;101042.34;;;28.45;99.44
71004;BME280;59025;42.050;-8.660;2022-08-19T08:34:14;101043.06;;;28.76;100.00
71004;BME280;59025;42.050;-8.660;2022-08-19T08:36:45;101043.06;;;28.76;98.86
71004;BME280;59025;42.050;-8.660;2022-08-19T08:39:14;101040.19;;;28.55;97.95
71004;BME280;59025;42.050;-8.660;2022-08-19T08:41:49;101035.53;;;29.00;97.35
71004;BME280;59025;42.050;-8.660;2022-08-19T08:44:22;101037.84;;;29.01;96.98
71004;BME280;59025;42.050;-8.660;2022-08-19T08:46:51;101034.22;;;28.80;95.91
71004;BME280;59025;42.050;-8.660;2022-08-19T08:49:28;101033.28;;;28.85;96.95
71004;BME280;59025;42.050;-8.660;2022-08-19T08:52:02;101030.28;;;28.69;97.14
71004;BME280;59025;42.050;-8.660;2022-08-19T08:54:35;101031.28;;;28.99;95.55
71004;BME280;59025;42.050;-8.660;2022-08-19T08:57:07;101030.25;;;29.25;93.60
71004;BME280;59025;42.050;-8.660;2022-08-19T08:59:39;101026.22;;;29.53;93.72
71004;BME280;59025;42.050;-8.660;2022-08-19T09:02:09;101028.34;;;29.51;93.42
71004;BME280;59025;42.050;-8.660;2022-08-19T09:04:37;101024.97;;;29.59;93.47
71004;BME280;59025;42.050;-8.660;2022-08-19T09:07:30;101026.50;;;29.77;91.95
71004;BME280;59025;42.050;-8.660;2022-08-19T09:10:11;101025.47;;;30.53;88.83
71004;BME280;59025;42.050;-8.660;2022-08-19T09:12:47;101032.09;;;30.39;88.39
71004;BME280;59025;42.050;-8.660;2022-08-19T09:15:19;101029.03;;;30.28;88.02
71004;BME280;59025;42.050;-8.660;2022-08-19T09:17:49;101030.25;;;30.39;88.46
71004;BME280;59025;42.050;-8.660;2022-08-19T09:20:19;101031.03;;;30.31;87.38
71004;BME280;59025;42.050;-8.660;2022-08-19T09:22:49;101029.06;;;30.57;87.10
71004;BME280;59025;42.050;-8.660;2022-08-19T09:25:18;101026.72;;;30.85;86.20
71004;BME280;59025;42.050;-8.660;2022-08-19T09:27:48;101026.16;;;30.79;85.54
71004;BME280;59025;42.050;-8.660;2022-08-19T09:30:20;101028.56;;;30.64;84.50
71004;BME280;59025;42.050;-8.660;2022-08-19T09:32:48;101028.38;;;30.98;84.89
71004;BME280;59025;42.050;-8.660;2022-08-19T09:35:18;101021.03;;;30.95;83.97
71004;BME280;59025;42.050;-8.660;2022-08-19T09:37:49;101016.16;;;31.26;84.47
71004;BME280;59025;42.050;-8.660;2022-08-19T09:40:18;101026.53;;;31.19;81.15
71004;BME280;59025;42.050;-8.660;2022-08-19T09:42:46;101019.84;;;31.54;82.19
71004;BME280;59025;42.050;-8.660;2022-08-19T09:45:14;101015.31;;;31.99;80.08
71004;BME280;59025;42.050;-8.660;2022-08-19T09:47:42;101025.31;;;32.02;78.22
71004;BME280;59025;42.050;-8.660;2022-08-19T09:50:11;101024.72;;;31.84;77.52
71004;BME280;59025;42.050;-8.660;2022-08-19T09:52:39;101020.09;;;32.05;79.75
71004;BME280;59025;42.050;-8.660;2022-08-19T09:55:10;101009.44;;;32.17;77.41
71004;BME280;59025;42.050;-8.660;2022-08-19T09:57:38;101017.22;;;32.22;76.64
71004;BME280;59025;42.050;-8.660;2022-08-19T10:00:08;101015.13;;;32.16;77.16
71004;BME280;59025;42.050;-8.660;2022-08-19T10:02:36;101013.22;;;32.04;76.02
71004;BME280;59025;42.050;-8.660;2022-08-19T10:05:04;101013.75;;;31.98;76.96
71004;BME280;59025;42.050;-8.660;2022-08-19T10:07:49;101012.56;;;31.95;78.15
71004;BME280;59025;42.050;-8.660;2022-08-19T10:10:18;101012.91;;;32.18;74.92
71004;BME280;59025;42.050;-8.660;2022-08-19T10:12:46;101018.94;;;32.27;75.89
71004;BME280;59025;42.050;-8.660;2022-08-19T10:15:14;101007.50;;;32.50;75.15
71004;BME280;59025;42.050;-8.660;2022-08-19T10:17:42;101008.34;;;32.90;69.92
71004;BME280;59025;42.050;-8.660;2022-08-19T10:20:10;101014.06;;;33.16;70.74
71004;BME280;59025;42.050;-8.660;2022-08-19T10:22:38;101017.25;;;32.82;73.84
71004;BME280;59025;42.050;-8.660;2022-08-19T10:25:07;101006.13;;;32.92;71.28
71004;BME280;59025;42.050;-8.660;2022-08-19T10:27:36;101005.81;;;33.21;73.90
71004;BME280;59025;42.050;-8.660;2022-08-19T10:30:04;101004.78;;;33.65;65.87
71004;BME280;59025;42.050;-8.660;2022-08-19T10:32:32;101004.41;;;33.79;64.39
71004;BME280;59025;42.050;-8.660;2022-08-19T10:34:59;101003.56;;;33.63;64.80
71004;BME280;59025;42.050;-8.660;2022-08-19T10:37:27;100997.94;;;33.80;67.63
71004;BME280;59025;42.050;-8.660;2022-08-19T10:39:56;101010.69;;;34.02;63.85
71004;BME280;59025;42.050;-8.660;2022-08-19T10:42:23;101001.22;;;34.35;62.22
71004;BME280;59025;42.050;-8.660;2022-08-19T10:44:52;101006.50;;;34.82;62.39
71004;BME280;59025;42.050;-8.660;2022-08-19T10:47:20;101007.84;;;34.41;61.73
71004;BME280;59025;42.050;-8.660;2022-08-19T10:49:49;101008.88;;;34.37;60.36
71004;BME280;59025;42.050;-8.660;2022-08-19T10:52:34;101005.47;;;34.71;57.86
71004;BME280;59025;42.050;-8.660;2022-08-19T10:55:02;100993.16;;;34.51;59.66
71004;BME280;59025;42.050;-8.660;2022-08-19T10:57:47;100983.59;;;34.50;59.43
71004;BME280;59025;42.050;-8.660;2022-08-19T11:00:16;100980.03;;;34.27;63.19
71004;BME280;59025;42.050;-8.660;2022-08-19T11:02:44;100986.13;;;34.43;62.27
71004;BME280;59025;42.050;-8.660;2022-08-19T11:05:12;100983.00;;;34.56;61.55
71004;BME280;59025;42.050;-8.660;2022-08-19T11:07:40;100977.16;;;34.35;61.45
71004;BME280;59025;42.050;-8.660;2022-08-19T11:10:11;100974.81;;;34.34;59.82
71004;BME280;59025;42.050;-8.660;2022-08-19T11:12:39;100966.53;;;34.39;61.06
71004;BME280;59025;42.050;-8.660;2022-08-19T11:15:08;100963.38;;;34.33;60.82
71004;BME280;59025;42.050;-8.660;2022-08-19T11:17:38;100964.84;;;34.31;62.59
71004;BME280;59025;42.050;-8.660;2022-08-19T11:20:10;100966.13;;;34.21;63.28
71004;BME280;59025;42.050;-8.660;2022-08-19T11:22:38;100960.19;;;34.43;59.94
71004;BME280;59025;42.050;-8.660;2022-08-19T11:25:07;100956.53;;;34.86;55.51
71004;BME280;59025;42.050;-8.660;2022-08-19T11:27:38;100966.44;;;35.04;53.57
71004;BME280;59025;42.050;-8.660;2022-08-19T11:30:10;100967.84;;;35.17;55.15
71004;BME280;59025;42.050;-8.660;2022-08-19T11:32:39;100973.41;;;35.47;48.01
71004;BME280;59025;42.050;-8.660;2022-08-19T11:35:08;100965.31;;;35.66;47.88
71004;BME280;59025;42.050;-8.660;2022-08-19T11:37:36;100956.88;;;35.64;52.36
71004;BME280;59025;42.050;-8.660;2022-08-19T11:40:06;100951.59;;;35.67;54.26
71004;BME280;59025;42.050;-8.660;2022-08-19T11:42:33;100954.66;;;35.69;50.20
71004;BME280;59025;42.050;-8.660;2022-08-19T11:45:18;100952.22;;;35.38;50.71
71004;BME280;59025;42.050;-8.660;2022-08-19T11:47:47;100941.63;;;35.45;53.30
71004;BME280;59025;42.050;-8.660;2022-08-19T11:50:15;100934.50;;;35.53;51.19
71004;BME280;59025;42.050;-8.660;2022-08-19T11:52:43;100918.69;;;35.44;55.61
71004;BME280;59025;42.050;-8.660;2022-08-19T11:55:11;100927.25;;;35.31;54.12
71004;BME280;59025;42.050;-8.660;2022-08-19T11:57:39;100921.47;;;35.51;53.13
71004;BME280;59025;42.050;-8.660;2022-08-19T12:00:10;100927.66;;;35.55;50.73
71004;BME280;59025;42.050;-8.660;2022-08-19T12:02:38;100928.31;;;35.49;50.04
71004;BME280;59025;42.050;-8.660;2022-08-19T12:05:08;100911.88;;;35.28;50.67
71004;BME280;59025;42.050;-8.660;2022-08-19T12:07:35;100914.16;;;35.48;48.94
71004;BME280;59025;42.050;-8.660;2022-08-19T12:10:03;100909.38;;;35.61;51.36
71004;BME280;59025;42.050;-8.660;2022-08-19T12:12:31;100900.16;;;35.58;56.48
71004;BME280;59025;42.050;-8.660;2022-08-19T12:14:58;100900.25;;;35.39;53.89
71004;BME280;59025;42.050;-8.660;2022-08-19T12:17:26;100896.44;;;35.21;49.26
71004;BME280;59025;42.050;-8.660;2022-08-19T12:19:54;100890.50;;;35.09;53.49
71004;BME280;59025;42.050;-8.660;2022-08-19T12:22:23;100887.16;;;34.58;58.16
71004;BME280;59025;42.050;-8.660;2022-08-19T12:24:51;100874.13;;;34.03;60.20
71004;BME280;59025;42.050;-8.660;2022-08-19T12:27:19;100872.59;;;33.87;62.12
71004;BME280;59025;42.050;-8.660;2022-08-19T12:29:46;100879.03;;;34.01;56.10
71004;BME280;59025;42.050;-8.660;2022-08-19T12:32:15;100864.13;;;34.00;62.07
71004;BME280;59025;42.050;-8.660;2022-08-19T12:34:42;100858.78;;;34.00;60.44
71004;BME280;59025;42.050;-8.660;2022-08-19T12:37:10;100855.44;;;34.03;59.73
71004;BME280;59025;42.050;-8.660;2022-08-19T12:39:41;100863.88;;;34.05;55.04
71004;BME280;59025;42.050;-8.660;2022-08-19T12:42:10;100851.38;;;34.09;59.71
71004;BME280;59025;42.050;-8.660;2022-08-19T12:44:39;100861.75;;;34.14;53.44